createdAt,value
2024-04-07T00:00:30.632Z,996.40
2024-04-07T00:01:30.624Z,996.39
2024-04-07T00:02:30.617Z,996.36
2024-04-07T00:03:30.606Z,996.38
2024-04-07T00:04:30.612Z,996.39
2024-04-07T00:05:30.559Z,996.39
2024-04-07T00:06:30.553Z,996.41
2024-04-07T00:07:30.550Z,996.39
2024-04-07T00:08:30.536Z,996.37
2024-04-07T00:09:30.507Z,996.42
2024-04-07T00:10:30.519Z,996.44
2024-04-07T00:11:30.495Z,996.45
2024-04-07T00:12:30.473Z,996.44
2024-04-07T00:13:30.486Z,996.44
2024-04-07T00:14:30.451Z,996.44
2024-04-07T00:15:30.453Z,996.48
2024-04-07T00:16:30.432Z,996.48
2024-04-07T00:17:30.417Z,996.50
2024-04-07T00:18:30.414Z,996.56
2024-04-07T00:19:30.984Z,996.56
2024-04-07T00:20:30.382Z,996.51
2024-04-07T00:21:30.372Z,996.49
2024-04-07T00:22:30.351Z,996.48
2024-04-07T00:23:30.332Z,996.51
2024-04-07T00:24:30.311Z,996.46
2024-04-07T00:25:30.319Z,996.46
2024-04-07T00:26:30.296Z,996.42
2024-04-07T00:27:30.317Z,996.48
2024-04-07T00:28:30.283Z,996.45
2024-04-07T00:29:30.250Z,996.38
2024-04-07T00:30:30.284Z,996.40
2024-04-07T00:31:30.223Z,996.41
2024-04-07T00:32:30.295Z,996.43
2024-04-07T00:33:30.217Z,996.44
2024-04-07T00:34:30.182Z,996.52
2024-04-07T00:35:30.188Z,996.50
2024-04-07T00:36:30.155Z,996.59
2024-04-07T00:37:30.168Z,996.59
2024-04-07T00:38:30.159Z,996.61
2024-04-07T00:39:30.122Z,996.58
2024-04-07T00:40:30.183Z,996.65
2024-04-07T00:41:30.090Z,996.66
2024-04-07T00:42:30.092Z,996.58
2024-04-07T00:43:30.081Z,996.64
2024-04-07T00:44:30.092Z,996.59
2024-04-07T00:45:30.050Z,996.57
2024-04-07T00:46:30.033Z,996.58
2024-04-07T00:47:30.027Z,996.64
2024-04-07T00:48:30.025Z,996.69
2024-04-07T00:49:30.026Z,996.59
2024-04-07T00:50:29.980Z,996.65
2024-04-07T00:51:29.980Z,996.63
2024-04-07T00:52:29.959Z,996.66
2024-04-07T00:53:29.943Z,996.64
2024-04-07T00:54:29.941Z,996.67
2024-04-07T00:55:29.966Z,996.64
2024-04-07T00:56:29.899Z,996.63
2024-04-07T00:57:29.899Z,996.59
2024-04-07T00:58:29.880Z,996.61
2024-04-07T00:59:29.882Z,996.54
2024-04-07T01:00:29.852Z,996.61
2024-04-07T01:01:29.862Z,996.67
2024-04-07T01:02:29.824Z,996.74
2024-04-07T01:03:29.812Z,996.71
2024-04-07T01:04:29.806Z,996.78
2024-04-07T01:05:29.783Z,996.79
2024-04-07T01:06:29.797Z,996.81
2024-04-07T01:07:29.761Z,996.85
2024-04-07T01:08:29.757Z,996.93
2024-04-07T01:09:29.738Z,997.00
2024-04-07T01:10:29.718Z,996.97
2024-04-07T01:11:29.727Z,996.97
2024-04-07T01:12:29.733Z,996.99
2024-04-07T01:13:29.690Z,996.96
2024-04-07T01:14:29.674Z,996.97
2024-04-07T01:15:29.672Z,996.95
2024-04-07T01:16:29.649Z,997.02
2024-04-07T01:17:29.640Z,996.99
2024-04-07T01:18:29.644Z,997.07
2024-04-07T01:19:29.605Z,997.09
2024-04-07T01:20:29.625Z,997.07
2024-04-07T01:21:29.581Z,997.10
2024-04-07T01:22:29.576Z,997.11
2024-04-07T01:23:29.576Z,997.13
2024-04-07T01:24:29.554Z,997.21
2024-04-07T01:25:29.550Z,997.09
2024-04-07T01:26:29.521Z,997.16
2024-04-07T01:27:29.514Z,997.08
2024-04-07T01:28:29.498Z,997.11
2024-04-07T01:29:29.506Z,997.19
2024-04-07T01:30:29.474Z,997.16
2024-04-07T01:31:29.453Z,997.24
2024-04-07T01:32:29.452Z,997.34
2024-04-07T01:33:29.469Z,997.24
2024-04-07T01:34:29.414Z,997.36
2024-04-07T01:35:29.425Z,997.41
2024-04-07T01:36:29.389Z,997.38
2024-04-07T01:37:29.390Z,997.37
2024-04-07T01:38:29.368Z,997.38
2024-04-07T01:39:29.351Z,997.37
2024-04-07T01:40:29.350Z,997.36
2024-04-07T01:41:29.341Z,997.39
2024-04-07T01:42:29.316Z,997.34
2024-04-07T01:43:29.299Z,997.34
2024-04-07T01:44:29.284Z,997.37
2024-04-07T01:45:29.277Z,997.47
2024-04-07T01:46:29.294Z,997.48
2024-04-07T01:47:29.325Z,997.47
2024-04-07T01:48:29.258Z,997.43
2024-04-07T01:49:29.238Z,997.47
2024-04-07T01:50:29.231Z,997.43
2024-04-07T01:51:29.235Z,997.44
2024-04-07T01:52:29.188Z,997.55
2024-04-07T01:53:29.183Z,997.60
2024-04-07T01:54:29.167Z,997.62
2024-04-07T01:55:29.148Z,997.60
2024-04-07T01:56:29.152Z,997.57
2024-04-07T01:57:29.167Z,997.65
2024-04-07T01:58:30.074Z,997.62
2024-04-07T01:59:29.109Z,997.71
2024-04-07T02:00:29.094Z,997.75
2024-04-07T02:01:29.086Z,997.81
2024-04-07T02:02:29.157Z,997.75
2024-04-07T02:03:29.056Z,997.79
2024-04-07T02:04:29.053Z,997.96
2024-04-07T02:05:29.018Z,998.12
2024-04-07T02:06:29.019Z,998.03
2024-04-07T02:07:29.010Z,997.97
2024-04-07T02:08:28.992Z,997.84
2024-04-07T02:09:28.973Z,997.88
2024-04-07T02:10:28.957Z,997.74
2024-04-07T02:11:28.974Z,997.72
2024-04-07T02:12:28.965Z,997.83
2024-04-07T02:13:28.931Z,997.79
2024-04-07T02:14:28.920Z,997.82
2024-04-07T02:15:28.911Z,997.88
2024-04-07T02:16:28.885Z,997.79
2024-04-07T02:17:28.857Z,997.95
2024-04-07T02:18:28.857Z,997.97
2024-04-07T02:19:28.865Z,998.06
2024-04-07T02:20:28.855Z,998.11
2024-04-07T02:21:28.840Z,998.15
2024-04-07T02:22:28.805Z,998.26
2024-04-07T02:23:28.797Z,998.25
2024-04-07T02:24:28.805Z,998.45
2024-04-07T02:25:28.773Z,998.48
2024-04-07T02:26:28.748Z,998.46
2024-04-07T02:27:28.755Z,998.66
2024-04-07T02:28:28.728Z,998.64
2024-04-07T02:29:28.723Z,998.65
2024-04-07T02:30:28.727Z,998.74
2024-04-07T02:31:28.687Z,998.68
2024-04-07T02:32:28.702Z,998.53
2024-04-07T02:33:28.669Z,998.59
2024-04-07T02:34:28.659Z,998.57
2024-04-07T02:35:28.656Z,998.60
2024-04-07T02:36:28.616Z,998.74
2024-04-07T02:37:28.625Z,998.93
2024-04-07T02:38:28.600Z,998.97
2024-04-07T02:39:28.592Z,998.96
2024-04-07T02:40:28.589Z,998.90
2024-04-07T02:41:28.578Z,998.75
2024-04-07T02:42:28.554Z,998.66
2024-04-07T02:43:28.530Z,998.76
2024-04-07T02:44:28.520Z,998.82
2024-04-07T02:45:28.499Z,998.82
2024-04-07T02:46:28.513Z,999.12
2024-04-07T02:47:28.526Z,999.18
2024-04-07T02:48:28.460Z,999.18
2024-04-07T02:49:28.464Z,999.17
2024-04-07T02:50:28.447Z,999.17
2024-04-07T02:51:28.488Z,999.13
2024-04-07T02:52:28.419Z,999.13
2024-04-07T02:53:28.415Z,999.24
2024-04-07T02:54:28.421Z,999.31
2024-04-07T02:55:28.386Z,999.17
2024-04-07T02:56:28.414Z,999.31
2024-04-07T02:57:28.380Z,999.33
2024-04-07T02:58:28.355Z,999.31
2024-04-07T02:59:29.272Z,999.36
2024-04-07T03:00:28.311Z,999.43
2024-04-07T03:01:28.308Z,999.51
2024-04-07T03:02:28.311Z,999.53
2024-04-07T03:03:28.279Z,999.44
2024-04-07T03:04:28.280Z,999.37
2024-04-07T03:05:28.256Z,999.36
2024-04-07T03:06:28.254Z,999.43
2024-04-07T03:07:28.270Z,999.62
2024-04-07T03:08:28.219Z,999.57
2024-04-07T03:09:28.197Z,999.57
2024-04-07T03:10:28.193Z,999.49
2024-04-07T03:11:28.171Z,999.54
2024-04-07T03:12:28.159Z,999.63
2024-04-07T03:13:28.171Z,999.76
2024-04-07T03:14:28.176Z,999.77
2024-04-07T03:15:28.162Z,999.83
2024-04-07T03:16:28.103Z,999.82
2024-04-07T03:17:28.151Z,999.81
2024-04-07T03:18:28.131Z,999.87
2024-04-07T03:19:29.228Z,999.87
2024-04-07T03:20:28.058Z,999.95
2024-04-07T03:21:28.038Z,1000.02
2024-04-07T03:22:28.045Z,1000.06
2024-04-07T03:23:28.011Z,1000.16
2024-04-07T03:24:28.049Z,1000.03
2024-04-07T03:25:27.989Z,999.89
2024-04-07T03:26:27.971Z,999.84
2024-04-07T03:27:27.967Z,999.93
2024-04-07T03:28:27.954Z,1000.01
2024-04-07T03:29:27.941Z,1000.06
2024-04-07T03:30:27.960Z,1000.03
2024-04-07T03:31:27.906Z,1000.09
2024-04-07T03:32:27.965Z,1000.18
2024-04-07T03:33:27.887Z,1000.22
2024-04-07T03:34:27.888Z,1000.18
2024-04-07T03:35:27.903Z,1000.21
2024-04-07T03:36:27.846Z,1000.20
2024-04-07T03:37:27.848Z,1000.32
2024-04-07T03:38:27.822Z,1000.35
2024-04-07T03:39:27.832Z,1000.40
2024-04-07T03:40:27.801Z,1000.39
2024-04-07T03:41:27.809Z,1000.27
2024-04-07T03:42:27.770Z,1000.29
2024-04-07T03:43:27.757Z,1000.37
2024-04-07T03:44:27.803Z,1000.40
2024-04-07T03:45:27.732Z,1000.32
2024-04-07T03:46:27.738Z,1000.23
2024-04-07T03:47:27.749Z,1000.30
2024-04-07T03:48:27.731Z,1000.32
2024-04-07T03:49:27.699Z,1000.36
2024-04-07T03:50:27.726Z,1000.33
2024-04-07T03:51:27.662Z,1000.42
2024-04-07T03:52:27.684Z,1000.49
2024-04-07T03:53:27.621Z,1000.55
2024-04-07T03:54:27.637Z,1000.63
2024-04-07T03:55:27.624Z,1000.69
2024-04-07T03:56:27.618Z,1000.76
2024-04-07T03:57:27.610Z,1000.89
2024-04-07T03:58:27.561Z,1000.76
2024-04-07T03:59:27.557Z,1000.78
2024-04-07T04:00:27.553Z,1000.96
2024-04-07T04:01:27.533Z,1000.97
2024-04-07T04:02:27.508Z,1001.09
2024-04-07T04:03:27.511Z,1001.15
2024-04-07T04:04:27.508Z,1001.16
2024-04-07T04:05:27.478Z,1001.23
2024-04-07T04:06:27.457Z,1001.26
2024-04-07T04:07:27.446Z,1001.22
2024-04-07T04:08:27.481Z,1001.22
2024-04-07T04:09:27.414Z,1001.22
2024-04-07T04:10:27.422Z,1001.18
2024-04-07T04:11:27.389Z,1001.21
2024-04-07T04:12:27.378Z,1001.09
2024-04-07T04:13:27.379Z,1001.01
2024-04-07T04:14:27.352Z,1001.05
2024-04-07T04:15:27.348Z,1001.03
2024-04-07T04:16:27.324Z,1001.17
2024-04-07T04:17:27.316Z,1001.15
2024-04-07T04:18:27.309Z,1001.10
2024-04-07T04:19:27.289Z,1001.02
2024-04-07T04:20:27.292Z,1000.95
2024-04-07T04:21:27.260Z,1000.93
2024-04-07T04:22:27.249Z,1000.92
2024-04-07T04:23:27.242Z,1000.94
2024-04-07T04:24:27.271Z,1000.92
2024-04-07T04:25:27.213Z,1000.97
2024-04-07T04:26:27.193Z,1001.05
2024-04-07T04:27:29.578Z,1001.09
2024-04-07T04:28:27.182Z,1001.17
2024-04-07T04:29:30.976Z,1001.21
2024-04-07T04:30:27.164Z,1001.19
2024-04-07T04:31:27.137Z,1001.23
2024-04-07T04:32:27.119Z,1001.17
2024-04-07T04:33:27.122Z,1001.19
2024-04-07T04:34:27.108Z,1001.25
2024-04-07T04:35:27.100Z,1001.16
2024-04-07T04:36:27.086Z,1001.11
2024-04-07T04:37:27.046Z,1001.08
2024-04-07T04:38:27.047Z,1000.91
2024-04-07T04:39:27.020Z,1000.85
2024-04-07T04:40:27.023Z,1000.71
2024-04-07T04:41:27.001Z,1000.69
2024-04-07T04:42:27.030Z,1000.78
2024-04-07T04:43:27.002Z,1000.86
2024-04-07T04:44:26.948Z,1000.90
2024-04-07T04:45:26.957Z,1000.94
2024-04-07T04:46:26.921Z,1001.11
2024-04-07T04:47:26.943Z,1001.29
2024-04-07T04:48:26.908Z,1001.35
2024-04-07T04:49:26.905Z,1001.47
2024-04-07T04:50:26.892Z,1001.63
2024-04-07T04:51:26.863Z,1001.64
2024-04-07T04:52:26.861Z,1001.65
2024-04-07T04:53:26.871Z,1001.65
2024-04-07T04:54:26.865Z,1001.68
2024-04-07T04:55:26.831Z,1001.68
2024-04-07T04:56:26.816Z,1001.79
2024-04-07T04:57:26.787Z,1001.59
2024-04-07T04:58:26.838Z,1001.59
2024-04-07T04:59:26.770Z,1001.68
2024-04-07T05:00:26.766Z,1001.64
2024-04-07T05:01:26.722Z,1001.76
2024-04-07T05:02:26.722Z,1001.78
2024-04-07T05:03:26.705Z,1001.81
2024-04-07T05:04:26.777Z,1001.75
2024-04-07T05:05:26.700Z,1001.85
2024-04-07T05:06:26.664Z,1001.87
2024-04-07T05:07:26.657Z,1001.93
2024-04-07T05:08:26.641Z,1002.02
2024-04-07T05:09:26.704Z,1001.98
2024-04-07T05:10:26.633Z,1001.93
2024-04-07T05:11:26.588Z,1001.86
2024-04-07T05:12:26.585Z,1001.73
2024-04-07T05:13:26.570Z,1001.68
2024-04-07T05:14:26.560Z,1001.68
2024-04-07T05:15:26.558Z,1001.69
2024-04-07T05:16:26.522Z,1001.79
2024-04-07T05:17:26.557Z,1001.92
2024-04-07T05:18:26.498Z,1001.92
2024-04-07T05:19:26.496Z,1001.80
2024-04-07T05:20:26.490Z,1001.85
2024-04-07T05:21:26.479Z,1001.87
2024-04-07T05:22:26.444Z,1001.81
2024-04-07T05:23:26.431Z,1001.68
2024-04-07T05:24:26.437Z,1001.64
2024-04-07T05:25:26.429Z,1001.70
2024-04-07T05:26:26.431Z,1001.65
2024-04-07T05:27:26.386Z,1001.65
2024-04-07T05:28:26.380Z,1001.78
2024-04-07T05:29:26.352Z,1001.83
2024-04-07T05:30:26.346Z,1001.75
2024-04-07T05:31:26.341Z,1001.71
2024-04-07T05:32:26.339Z,1001.65
2024-04-07T05:33:26.294Z,1001.54
2024-04-07T05:34:26.326Z,1001.62
2024-04-07T05:35:26.275Z,1001.58
2024-04-07T05:36:26.262Z,1001.64
2024-04-07T05:37:26.244Z,1001.64
2024-04-07T05:38:26.237Z,1001.85
2024-04-07T05:39:26.236Z,1001.88
2024-04-07T05:40:26.199Z,1001.86
2024-04-07T05:41:26.194Z,1001.89
2024-04-07T05:42:26.180Z,1001.91
2024-04-07T05:43:26.195Z,1001.88
2024-04-07T05:44:26.171Z,1001.75
2024-04-07T05:45:26.143Z,1001.78
2024-04-07T05:46:26.124Z,1001.70
2024-04-07T05:47:26.146Z,1001.67
2024-04-07T05:48:26.104Z,1001.62
2024-04-07T05:49:26.103Z,1001.53
2024-04-07T05:50:26.079Z,1001.46
2024-04-07T05:51:26.052Z,1001.41
2024-04-07T05:52:26.048Z,1001.48
2024-04-07T05:53:26.033Z,1001.50
2024-04-07T05:54:26.125Z,1001.50
2024-04-07T05:55:26.025Z,1001.45
2024-04-07T05:56:25.979Z,1001.47
2024-04-07T05:57:25.997Z,1001.46
2024-04-07T05:58:25.971Z,1001.45
2024-04-07T05:59:25.954Z,1001.48
2024-04-07T06:00:25.952Z,1001.47
2024-04-07T06:01:25.945Z,1001.51
2024-04-07T06:02:25.916Z,1001.44
2024-04-07T06:03:25.910Z,1001.44
2024-04-07T06:04:25.882Z,1001.43
2024-04-07T06:05:25.927Z,1001.41
2024-04-07T06:06:25.880Z,1001.45
2024-04-07T06:07:25.844Z,1001.45
2024-04-07T06:08:25.832Z,1001.48
2024-04-07T06:09:25.810Z,1001.48
2024-04-07T06:10:25.811Z,1001.49
2024-04-07T06:11:25.800Z,1001.48
2024-04-07T06:12:25.782Z,1001.45
2024-04-07T06:13:25.816Z,1001.48
2024-04-07T06:14:25.739Z,1001.48
2024-04-07T06:15:25.743Z,1001.53
2024-04-07T06:16:25.759Z,1001.57
2024-04-07T06:17:25.756Z,1001.60
2024-04-07T06:18:25.706Z,1001.56
2024-04-07T06:19:25.722Z,1001.61
2024-04-07T06:20:25.694Z,1001.56
2024-04-07T06:21:25.653Z,1001.58
2024-04-07T06:22:25.662Z,1001.55
2024-04-07T06:23:25.630Z,1001.56
2024-04-07T06:24:25.658Z,1001.56
2024-04-07T06:25:25.627Z,1001.50
2024-04-07T06:26:25.586Z,1001.51
2024-04-07T06:27:25.576Z,1001.54
2024-04-07T06:28:25.567Z,1001.53
2024-04-07T06:29:25.551Z,1001.60
2024-04-07T06:30:25.533Z,1001.60
2024-04-07T06:31:25.554Z,1001.64
2024-04-07T06:32:25.509Z,1001.61
2024-04-07T06:33:25.528Z,1001.74
2024-04-07T06:34:25.479Z,1001.63
2024-04-07T06:35:25.485Z,1001.62
2024-04-07T06:36:25.469Z,1001.69
2024-04-07T06:37:25.449Z,1001.74
2024-04-07T06:38:25.444Z,1001.72
2024-04-07T06:39:25.442Z,1001.72
2024-04-07T06:40:25.401Z,1001.68
2024-04-07T06:41:25.417Z,1001.74
2024-04-07T06:42:25.372Z,1001.72
2024-04-07T06:43:25.365Z,1001.77
2024-04-07T06:44:25.391Z,1001.78
2024-04-07T06:45:25.333Z,1001.73
2024-04-07T06:46:25.316Z,1001.74
2024-04-07T06:47:25.329Z,1001.71
2024-04-07T06:48:25.310Z,1001.75
2024-04-07T06:49:25.293Z,1001.80
2024-04-07T06:50:25.313Z,1001.77
2024-04-07T06:51:25.268Z,1001.78
2024-04-07T06:52:27.969Z,1001.77
2024-04-07T06:53:25.231Z,1001.80
2024-04-07T06:54:25.216Z,1001.86
2024-04-07T06:55:25.264Z,1001.89
2024-04-07T06:56:25.215Z,1001.85
2024-04-07T06:57:25.179Z,1001.77
2024-04-07T06:58:25.198Z,1001.83
2024-04-07T06:59:25.179Z,1001.76
2024-04-07T07:00:25.172Z,1001.83
2024-04-07T07:01:25.148Z,1001.81
2024-04-07T07:02:25.110Z,1001.80
2024-04-07T07:03:25.130Z,1001.85
2024-04-07T07:04:25.092Z,1001.78
2024-04-07T07:05:25.090Z,1001.83
2024-04-07T07:06:25.069Z,1001.84
2024-04-07T07:07:25.061Z,1001.81
2024-04-07T07:08:25.018Z,1001.79
2024-04-07T07:09:25.063Z,1001.78
2024-04-07T07:10:25.004Z,1001.76
2024-04-07T07:11:25.000Z,1001.82
2024-04-07T07:12:24.981Z,1001.92
2024-04-07T07:13:24.966Z,1001.95
2024-04-07T07:14:24.983Z,1002.03
2024-04-07T07:15:24.969Z,1002.04
2024-04-07T07:16:26.788Z,1002.04
2024-04-07T07:17:24.928Z,1002.05
2024-04-07T07:18:24.914Z,1002.11
2024-04-07T07:19:24.884Z,1002.09
2024-04-07T07:20:24.866Z,1002.03
2024-04-07T07:21:24.862Z,1002.08
2024-04-07T07:22:24.852Z,1002.13
2024-04-07T07:23:24.843Z,1002.15
2024-04-07T07:24:24.832Z,1002.19
2024-04-07T07:25:24.803Z,1002.13
2024-04-07T07:26:24.781Z,1002.09
2024-04-07T07:27:24.775Z,1002.16
2024-04-07T07:28:24.759Z,1002.01
2024-04-07T07:29:24.781Z,1002.03
2024-04-07T07:30:24.743Z,1002.09
2024-04-07T07:31:24.715Z,1002.00
2024-04-07T07:32:24.723Z,1002.08
2024-04-07T07:33:24.686Z,1002.06
2024-04-07T07:34:24.758Z,1002.10
2024-04-07T07:35:24.687Z,1002.17
2024-04-07T07:36:24.780Z,1002.17
2024-04-07T07:37:24.660Z,1002.21
2024-04-07T07:38:24.643Z,1002.20
2024-04-07T07:39:24.617Z,1002.28
2024-04-07T07:40:24.638Z,1002.31
2024-04-07T07:41:24.590Z,1002.37
2024-04-07T07:42:24.566Z,1002.26
2024-04-07T07:43:24.565Z,1002.27
2024-04-07T07:44:24.587Z,1002.33
2024-04-07T07:45:24.561Z,1002.31
2024-04-07T07:46:24.510Z,1002.31
2024-04-07T07:47:24.505Z,1002.33
2024-04-07T07:48:24.491Z,1002.34
2024-04-07T07:49:24.495Z,1002.31
2024-04-07T07:50:24.480Z,1002.33
2024-04-07T07:51:24.485Z,1002.31
2024-04-07T07:52:24.436Z,1002.36
2024-04-07T07:53:24.439Z,1002.38
2024-04-07T07:54:24.418Z,1002.28
2024-04-07T07:55:24.402Z,1002.37
2024-04-07T07:56:24.478Z,1002.41
2024-04-07T07:57:24.408Z,1002.44
2024-04-07T07:58:24.374Z,1002.47
2024-04-07T07:59:24.389Z,1002.42
2024-04-07T08:00:25.046Z,1002.45
2024-04-07T08:01:24.328Z,1002.41
2024-04-07T08:02:24.329Z,1002.43
2024-04-07T08:03:24.311Z,1002.50
2024-04-07T08:04:24.314Z,1002.49
2024-04-07T08:05:24.279Z,1002.44
2024-04-07T08:06:24.278Z,1002.53
2024-04-07T08:07:24.262Z,1002.56
2024-04-07T08:08:24.302Z,1002.47
2024-04-07T08:09:24.253Z,1002.47
2024-04-07T08:10:24.207Z,1002.47
2024-04-07T08:11:24.218Z,1002.47
2024-04-07T08:12:33.787Z,1002.51
2024-04-07T08:13:25.218Z,1002.62
2024-04-07T08:14:24.178Z,1002.62
2024-04-07T08:15:24.196Z,1002.59
2024-04-07T08:16:24.148Z,1002.51
2024-04-07T08:17:24.104Z,1002.56
2024-04-07T08:18:24.111Z,1002.59
2024-04-07T08:19:24.119Z,1002.63
2024-04-07T08:20:24.073Z,1002.68
2024-04-07T08:21:24.069Z,1002.64
2024-04-07T08:22:24.039Z,1002.58
2024-04-07T08:23:24.042Z,1002.67
2024-04-07T08:24:24.059Z,1002.66
2024-04-07T08:25:24.022Z,1002.64
2024-04-07T08:26:26.326Z,1002.65
2024-04-07T08:27:24.007Z,1002.73
2024-04-07T08:28:23.974Z,1002.69
2024-04-07T08:29:23.947Z,1002.70
2024-04-07T08:30:23.956Z,1002.65
2024-04-07T08:31:25.151Z,1002.59
2024-04-07T08:32:23.949Z,1002.70
2024-04-07T08:33:23.904Z,1002.64
2024-04-07T08:34:23.891Z,1002.59
2024-04-07T08:35:23.876Z,1002.62
2024-04-07T08:36:23.902Z,1002.65
2024-04-07T08:37:23.882Z,1002.66
2024-04-07T08:38:23.848Z,1002.65
2024-04-07T08:39:23.820Z,1002.65
2024-04-07T08:40:23.819Z,1002.58
2024-04-07T08:41:23.823Z,1002.61
2024-04-07T08:42:23.797Z,1002.65
2024-04-07T08:43:23.770Z,1002.71
2024-04-07T08:44:23.783Z,1002.74
2024-04-07T08:45:23.797Z,1002.73
2024-04-07T08:46:23.743Z,1002.72
2024-04-07T08:47:23.751Z,1002.52
2024-04-07T08:48:23.736Z,1002.62
2024-04-07T08:49:23.733Z,1002.65
2024-04-07T08:50:23.781Z,1002.61
2024-04-07T08:51:23.708Z,1002.55
2024-04-07T08:52:23.714Z,1002.68
2024-04-07T08:53:23.670Z,1002.71
2024-04-07T08:54:23.665Z,1002.63
2024-04-07T08:55:23.622Z,1002.72
2024-04-07T08:56:23.615Z,1002.74
2024-04-07T08:57:23.632Z,1002.73
2024-04-07T08:58:23.634Z,1002.68
2024-04-07T08:59:23.632Z,1002.85
2024-04-07T09:00:23.552Z,1002.79
2024-04-07T09:01:23.559Z,1002.70
2024-04-07T09:02:23.563Z,1002.73
2024-04-07T09:03:23.529Z,1002.77
2024-04-07T09:04:23.572Z,1002.79
2024-04-07T09:05:23.571Z,1002.77
2024-04-07T09:06:23.477Z,1002.82
2024-04-07T09:07:23.483Z,1002.75
2024-04-07T09:08:23.474Z,1002.77
2024-04-07T09:09:23.469Z,1002.77
2024-04-07T09:10:23.461Z,1002.79
2024-04-07T09:11:23.405Z,1002.64
2024-04-07T09:12:23.398Z,1002.77
2024-04-07T09:13:23.401Z,1002.71
2024-04-07T09:14:23.383Z,1002.83
2024-04-07T09:15:23.381Z,1002.69
2024-04-07T09:16:23.438Z,1002.81
2024-04-07T09:17:23.341Z,1002.82
2024-04-07T09:18:23.309Z,1002.86
2024-04-07T09:19:23.313Z,1002.72
2024-04-07T09:20:23.315Z,1002.66
2024-04-07T09:21:23.343Z,1002.74
2024-04-07T09:22:23.280Z,1002.70
2024-04-07T09:23:23.266Z,1002.78
2024-04-07T09:24:23.262Z,1002.68
2024-04-07T09:25:23.350Z,1002.61
2024-04-07T09:26:23.260Z,1002.66
2024-04-07T09:27:23.208Z,1002.56
2024-04-07T09:28:23.239Z,1002.64
2024-04-07T09:29:23.219Z,1002.52
2024-04-07T09:30:23.230Z,1002.65
2024-04-07T09:31:23.211Z,1002.67
2024-04-07T09:32:23.148Z,1002.67
2024-04-07T09:33:23.123Z,1002.77
2024-04-07T09:34:23.116Z,1002.72
2024-04-07T09:35:23.120Z,1002.71
2024-04-07T09:36:23.125Z,1002.80
2024-04-07T09:37:23.091Z,1002.73
2024-04-07T09:38:23.086Z,1002.68
2024-04-07T09:39:23.042Z,1002.66
2024-04-07T09:40:23.050Z,1002.79
2024-04-07T09:41:23.023Z,1002.83
2024-04-07T09:42:23.031Z,1002.78
2024-04-07T09:43:23.036Z,1002.64
2024-04-07T09:44:23.006Z,1002.62
2024-04-07T09:45:22.971Z,1002.67
2024-04-07T09:46:22.946Z,1002.63
2024-04-07T09:47:22.967Z,1002.64
2024-04-07T09:48:23.022Z,1002.67
2024-04-07T09:49:22.921Z,1002.62
2024-04-07T09:50:22.945Z,1002.57
2024-04-07T09:51:22.913Z,1002.57
2024-04-07T09:52:22.895Z,1002.58
2024-04-07T09:53:22.877Z,1002.71
2024-04-07T09:54:22.871Z,1002.69
2024-04-07T09:55:22.841Z,1002.66
2024-04-07T09:56:22.852Z,1002.73
2024-04-07T09:57:22.862Z,1002.64
2024-04-07T09:58:22.813Z,1002.72
2024-04-07T09:59:22.806Z,1002.80
2024-04-07T10:00:22.850Z,1002.70
2024-04-07T10:01:22.811Z,1002.65
2024-04-07T10:02:22.769Z,1002.68
2024-04-07T10:03:22.764Z,1002.81
2024-04-07T10:04:22.773Z,1002.68
2024-04-07T10:05:22.741Z,1002.64
2024-04-07T10:06:22.776Z,1002.63
2024-04-07T10:07:22.727Z,1002.73
2024-04-07T10:08:22.701Z,1002.72
2024-04-07T10:09:22.680Z,1002.57
2024-04-07T10:10:22.641Z,1002.69
2024-04-07T10:11:22.669Z,1002.71
2024-04-07T10:12:22.617Z,1002.70
2024-04-07T10:13:22.611Z,1002.67
2024-04-07T10:14:22.635Z,1002.66
2024-04-07T10:15:22.581Z,1002.72
2024-04-07T10:16:22.578Z,1002.61
2024-04-07T10:17:22.554Z,1002.72
2024-04-07T10:18:22.579Z,1002.70
2024-04-07T10:19:22.575Z,1002.86
2024-04-07T10:20:22.514Z,1002.83
2024-04-07T10:21:22.514Z,1002.79
2024-04-07T10:22:22.487Z,1002.79
2024-04-07T10:23:22.504Z,1002.77
2024-04-07T10:24:22.545Z,1002.86
2024-04-07T10:25:22.497Z,1002.89
2024-04-07T10:26:22.442Z,1002.84
2024-04-07T10:27:22.456Z,1002.75
2024-04-07T10:28:22.421Z,1002.79
2024-04-07T10:29:22.455Z,1002.85
2024-04-07T10:30:22.421Z,1002.84
2024-04-07T10:31:22.375Z,1002.79
2024-04-07T10:32:22.390Z,1002.80
2024-04-07T10:33:22.362Z,1002.83
2024-04-07T10:34:22.375Z,1002.84
2024-04-07T10:35:22.359Z,1002.84
2024-04-07T10:36:22.367Z,1002.81
2024-04-07T10:37:22.315Z,1002.77
2024-04-07T10:38:22.290Z,1002.81
2024-04-07T10:39:22.281Z,1002.85
2024-04-07T10:40:22.296Z,1002.87
2024-04-07T10:41:22.246Z,1002.79
2024-04-07T10:42:22.252Z,1002.79
2024-04-07T10:43:22.239Z,1002.83
2024-04-07T10:44:22.233Z,1002.78
2024-04-07T10:45:22.212Z,1002.79
2024-04-07T10:46:22.233Z,1002.77
2024-04-07T10:47:22.255Z,1002.78
2024-04-07T10:48:22.187Z,1002.72
2024-04-07T10:49:22.240Z,1002.76
2024-04-07T10:50:22.139Z,1002.79
2024-04-07T10:51:22.136Z,1002.86
2024-04-07T10:52:22.184Z,1002.82
2024-04-07T10:53:22.087Z,1002.76
2024-04-07T10:54:22.103Z,1002.87
2024-04-07T10:55:22.087Z,1002.78
2024-04-07T10:56:22.049Z,1002.81
2024-04-07T10:57:22.054Z,1002.82
2024-04-07T10:58:22.055Z,1002.79
2024-04-07T10:59:22.023Z,1002.81
2024-04-07T11:00:22.029Z,1002.75
2024-04-07T11:01:21.983Z,1002.85
2024-04-07T11:02:21.976Z,1002.75
2024-04-07T11:03:21.987Z,1002.76
2024-04-07T11:04:22.007Z,1002.81
2024-04-07T11:05:21.956Z,1002.81
2024-04-07T11:06:25.323Z,1002.79
2024-04-07T11:07:21.915Z,1002.73
2024-04-07T11:08:21.918Z,1002.82
2024-04-07T11:09:21.929Z,1002.82
2024-04-07T11:10:21.880Z,1002.75
2024-04-07T11:11:21.864Z,1002.73
2024-04-07T11:12:21.847Z,1002.74
2024-04-07T11:13:21.854Z,1002.68
2024-04-07T11:14:21.916Z,1002.85
2024-04-07T11:15:21.815Z,1002.75
2024-04-07T11:16:21.851Z,1002.77
2024-04-07T11:17:29.668Z,1002.78
2024-04-07T11:18:22.766Z,1002.77
2024-04-07T11:19:21.756Z,1002.70
2024-04-07T11:20:21.796Z,1002.76
2024-04-07T11:21:21.754Z,1002.74
2024-04-07T11:22:21.761Z,1002.72
2024-04-07T11:23:21.750Z,1002.74
2024-04-07T11:24:21.721Z,1002.77
2024-04-07T11:25:21.758Z,1002.81
2024-04-07T11:26:21.704Z,1002.74
2024-04-07T11:27:21.670Z,1002.72
2024-04-07T11:28:21.655Z,1002.70
2024-04-07T11:29:21.641Z,1002.70
2024-04-07T11:30:21.647Z,1002.67
2024-04-07T11:31:21.631Z,1002.73
2024-04-07T11:32:21.641Z,1002.65
2024-04-07T11:33:21.587Z,1002.77
2024-04-07T11:34:21.637Z,1002.72
2024-04-07T11:35:21.550Z,1002.73
2024-04-07T11:36:21.565Z,1002.72
2024-04-07T11:37:21.571Z,1002.68
2024-04-07T11:38:21.521Z,1002.59
2024-04-07T11:39:21.530Z,1002.56
2024-04-07T11:40:21.501Z,1002.65
2024-04-07T11:41:21.480Z,1002.61
2024-04-07T11:42:21.470Z,1002.61
2024-04-07T11:43:21.463Z,1002.68
2024-04-07T11:44:21.452Z,1002.58
2024-04-07T11:45:21.445Z,1002.64
2024-04-07T11:46:21.413Z,1002.51
2024-04-07T11:47:21.430Z,1002.53
2024-04-07T11:48:21.408Z,1002.62
2024-04-07T11:49:21.385Z,1002.58
2024-04-07T11:50:21.365Z,1002.53
2024-04-07T11:51:21.369Z,1002.54
2024-04-07T11:52:21.348Z,1002.48
2024-04-07T11:53:21.327Z,1002.63
2024-04-07T11:54:21.370Z,1002.64
2024-04-07T11:55:21.309Z,1002.70
2024-04-07T11:56:21.308Z,1002.67
2024-04-07T11:57:21.323Z,1002.63
2024-04-07T11:58:21.256Z,1002.72
2024-04-07T11:59:21.251Z,1002.71
2024-04-07T12:00:21.325Z,1002.72
2024-04-07T12:01:21.300Z,1002.58
2024-04-07T12:02:21.240Z,1002.66
2024-04-07T12:03:21.187Z,1002.55
2024-04-07T12:04:21.208Z,1002.50
2024-04-07T12:05:21.197Z,1002.38
2024-04-07T12:06:21.163Z,1002.43
2024-04-07T12:07:21.157Z,1002.49
2024-04-07T12:08:21.123Z,1002.53
2024-04-07T12:09:21.126Z,1002.38
2024-04-07T12:10:21.096Z,1002.48
2024-04-07T12:11:21.095Z,1002.42